createdAt,value
2023-07-19T00:00:08.479Z,3.40
2023-07-19T00:02:40.855Z,3.20
2023-07-19T00:05:09.289Z,3.20
2023-07-19T00:07:36.348Z,3.50
2023-07-19T00:10:04.663Z,3.60
2023-07-19T00:12:46.107Z,3.10
2023-07-19T00:15:18.167Z,3.20
2023-07-19T00:17:45.732Z,3.40
2023-07-19T00:20:13.183Z,3.40
2023-07-19T00:22:40.206Z,3.00
2023-07-19T00:25:07.692Z,2.70
2023-07-19T00:27:34.591Z,3.10
2023-07-19T00:30:01.502Z,3.30
2023-07-19T00:32:28.470Z,3.10
2023-07-19T00:34:55.388Z,2.70
2023-07-19T00:37:22.417Z,3.30
2023-07-19T00:39:49.817Z,2.90
2023-07-19T00:42:16.633Z,2.80
2023-07-19T00:44:43.735Z,3.10
2023-07-19T00:47:10.903Z,3.20
2023-07-19T00:49:41.517Z,3.10
2023-07-19T00:52:09.607Z,3.10
2023-07-19T00:54:37.821Z,3.30
2023-07-19T00:57:08.365Z,2.60
2023-07-19T00:59:35.546Z,2.60
2023-07-19T01:02:03.099Z,2.80
2023-07-19T01:04:31.034Z,2.60
2023-07-19T01:06:58.409Z,2.90
2023-07-19T01:09:26.955Z,2.70
2023-07-19T01:11:54.170Z,2.90
2023-07-19T01:14:21.021Z,2.90
2023-07-19T01:16:47.873Z,3.00
2023-07-19T01:19:16.576Z,2.80
2023-07-19T01:21:43.471Z,2.70
2023-07-19T01:24:10.337Z,2.90
2023-07-19T01:26:37.161Z,2.80
2023-07-19T01:29:04.212Z,2.90
2023-07-19T01:31:31.070Z,3.00
2023-07-19T01:33:58.018Z,3.40
2023-07-19T01:36:25.390Z,3.20
2023-07-19T01:38:53.387Z,3.10
2023-07-19T01:41:22.120Z,2.60
2023-07-19T01:43:49.217Z,2.90
2023-07-19T01:46:16.870Z,3.00
2023-07-19T01:48:43.940Z,3.60
2023-07-19T01:51:10.851Z,3.60
2023-07-19T01:53:37.854Z,3.30
2023-07-19T01:56:04.976Z,3.40
2023-07-19T01:58:31.942Z,3.00
2023-07-19T02:00:59.577Z,3.10
2023-07-19T02:03:26.626Z,3.00
2023-07-19T02:05:58.193Z,3.30
2023-07-19T02:08:25.752Z,3.50
2023-07-19T02:10:52.762Z,3.40
2023-07-19T02:13:19.616Z,3.30
2023-07-19T02:15:47.705Z,3.60
2023-07-19T02:18:14.778Z,3.50
2023-07-19T02:20:45.820Z,3.60
2023-07-19T02:23:13.191Z,3.50
2023-07-19T02:25:42.251Z,3.80
2023-07-19T02:28:09.794Z,3.20
2023-07-19T02:30:36.784Z,3.80
2023-07-19T02:33:03.657Z,4.30
2023-07-19T02:35:30.970Z,3.80
2023-07-19T02:37:57.865Z,3.80
2023-07-19T02:40:24.830Z,4.00
2023-07-19T02:42:51.809Z,3.40
2023-07-19T02:45:18.693Z,3.70
2023-07-19T02:47:45.526Z,3.60
2023-07-19T02:50:12.569Z,3.40
2023-07-19T02:52:39.629Z,3.90
2023-07-19T02:55:06.703Z,3.80
2023-07-19T02:57:33.657Z,3.60
2023-07-19T03:00:00.641Z,3.70
2023-07-19T03:02:27.507Z,3.00
2023-07-19T03:04:54.407Z,4.00
2023-07-19T03:07:22.713Z,3.50
2023-07-19T03:09:49.517Z,3.30
2023-07-19T03:12:16.480Z,4.20
2023-07-19T03:14:44.029Z,3.80
2023-07-19T03:17:11.328Z,4.00
2023-07-19T03:19:38.393Z,4.10
2023-07-19T03:22:05.841Z,3.80
2023-07-19T03:24:32.992Z,3.80
2023-07-19T03:26:59.824Z,3.30
2023-07-19T03:29:26.918Z,3.60
2023-07-19T03:31:53.816Z,3.40
2023-07-19T03:34:22.332Z,3.90
2023-07-19T03:36:49.121Z,4.10
2023-07-19T03:39:16.756Z,4.50
2023-07-19T03:41:43.591Z,3.80
2023-07-19T03:44:10.886Z,3.90
2023-07-19T03:46:38.699Z,3.70
2023-07-19T06:10:46.942Z,3.10
2023-07-19T07:18:45.843Z,3.00
2023-07-19T13:34:44.467Z,2.40
2023-07-19T13:38:15.096Z,2.40
2023-07-19T13:48:56.000Z,2.30
2023-07-19T13:52:19.332Z,2.30
2023-07-19T14:00:24.483Z,2.40
2023-07-19T14:05:08.976Z,2.40
2023-07-19T14:07:25.160Z,2.40
2023-07-19T14:13:09.932Z,2.20
2023-07-19T14:19:16.974Z,2.60
2023-07-19T14:35:04.833Z,2.30
2023-07-19T14:42:09.072Z,3.00
2023-07-19T14:44:41.704Z,2.70
2023-07-19T14:48:15.867Z,2.70
2023-07-19T14:57:57.640Z,2.60
2023-07-19T15:03:03.636Z,2.60
2023-07-19T15:05:37.554Z,2.50
2023-07-19T15:08:06.080Z,2.70
2023-07-19T15:10:33.364Z,2.50
2023-07-19T15:13:39.566Z,2.60
2023-07-19T15:16:20.472Z,2.60
2023-07-19T15:18:50.525Z,2.70
2023-07-19T15:24:33.275Z,2.40
2023-07-19T15:27:20.547Z,2.60
2023-07-19T15:29:47.405Z,2.40
2023-07-19T15:32:14.292Z,2.40
2023-07-19T15:34:41.115Z,2.70
2023-07-19T15:37:07.937Z,2.50
2023-07-19T15:39:34.811Z,2.30
2023-07-19T15:42:02.549Z,2.30
2023-07-19T15:44:36.325Z,2.50
2023-07-19T15:47:04.893Z,2.60
2023-07-19T15:49:32.106Z,2.30
2023-07-19T15:51:59.859Z,2.30
2023-07-19T15:54:26.954Z,2.40
2023-07-19T15:56:54.843Z,2.30
2023-07-19T15:59:21.865Z,2.30
2023-07-19T16:01:48.938Z,2.10
2023-07-19T16:04:16.288Z,2.30
2023-07-19T16:06:43.426Z,2.30
2023-07-19T16:09:10.241Z,2.20
2023-07-19T16:11:37.288Z,2.10
2023-07-19T16:14:07.393Z,2.00
2023-07-19T16:16:37.358Z,2.20
2023-07-19T16:19:04.262Z,2.10
2023-07-19T16:21:31.202Z,2.00
2023-07-19T16:23:58.347Z,2.10
2023-07-19T16:26:25.641Z,1.90
2023-07-19T16:28:52.689Z,2.00
2023-07-19T16:31:21.028Z,1.80
2023-07-19T16:33:48.268Z,2.00
2023-07-19T16:36:15.292Z,1.80
2023-07-19T16:38:42.267Z,2.20
2023-07-19T16:41:09.369Z,1.90
2023-07-19T16:43:36.226Z,2.00
2023-07-19T16:46:03.782Z,2.50
2023-07-19T16:48:32.962Z,2.00
2023-07-19T16:50:59.873Z,2.10
2023-07-19T16:53:26.729Z,2.20
2023-07-19T16:55:53.540Z,1.80
2023-07-19T16:58:20.825Z,1.90
2023-07-19T17:00:47.969Z,1.90
2023-07-19T17:03:14.948Z,2.10
2023-07-19T17:05:41.963Z,2.20
2023-07-19T17:08:08.831Z,2.10
2023-07-19T17:10:36.110Z,1.70
2023-07-19T17:13:04.629Z,2.10
2023-07-19T17:15:31.768Z,1.90
2023-07-19T17:18:00.400Z,2.30
2023-07-19T17:20:28.889Z,2.20
2023-07-19T17:22:56.346Z,1.90
2023-07-19T17:25:23.250Z,2.10
2023-07-19T17:27:50.174Z,2.10
2023-07-19T17:30:17.215Z,2.30
2023-07-19T17:32:45.860Z,2.30
2023-07-19T17:35:16.412Z,2.30
2023-07-19T17:37:43.223Z,2.30
2023-07-19T17:40:11.750Z,2.20
2023-07-19T17:42:39.416Z,2.50
2023-07-19T17:45:08.611Z,2.50
2023-07-19T17:47:35.477Z,2.50
2023-07-19T17:50:02.309Z,2.40
2023-07-19T17:52:30.733Z,2.60
2023-07-19T17:54:58.199Z,2.50
2023-07-19T17:57:25.160Z,2.60
2023-07-19T17:59:52.003Z,2.50
2023-07-19T18:02:20.702Z,3.10
2023-07-19T18:04:48.241Z,3.00
2023-07-19T18:07:15.286Z,3.10
2023-07-19T18:09:43.044Z,2.90
2023-07-19T18:12:11.473Z,2.90
2023-07-19T18:14:38.428Z,3.00
2023-07-19T18:17:07.101Z,2.80
2023-07-19T18:19:34.818Z,3.20
2023-07-19T18:22:04.408Z,3.30
2023-07-19T18:24:33.257Z,3.60
2023-07-19T18:27:01.098Z,3.80
2023-07-19T18:29:28.142Z,2.50
2023-07-19T18:31:55.156Z,2.70
2023-07-19T18:34:22.116Z,2.50
2023-07-19T18:36:50.308Z,2.70
2023-07-19T18:39:17.452Z,2.80
2023-07-19T18:41:44.640Z,2.80
2023-07-19T18:44:11.531Z,2.90
2023-07-19T18:46:38.573Z,3.00
2023-07-19T18:49:05.528Z,2.70
2023-07-19T18:51:32.526Z,3.00
2023-07-19T18:53:59.477Z,3.20
2023-07-19T18:56:28.745Z,3.10
2023-07-19T18:58:55.897Z,3.10
2023-07-19T19:01:23.377Z,3.40
2023-07-19T19:03:50.934Z,4.80
2023-07-19T19:06:18.299Z,4.10
2023-07-19T19:08:45.128Z,5.00
2023-07-19T19:11:12.364Z,3.70
2023-07-19T19:13:39.215Z,4.10
2023-07-19T19:16:06.143Z,3.40
2023-07-19T19:18:33.435Z,3.20
2023-07-19T19:21:00.783Z,3.30
2023-07-19T19:23:29.562Z,3.50
2023-07-19T19:25:56.486Z,3.40
2023-07-19T19:28:23.421Z,3.90
2023-07-19T19:30:51.139Z,3.60
2023-07-19T19:33:18.146Z,3.40
2023-07-19T19:35:45.160Z,3.60
2023-07-19T19:38:12.066Z,4.40
2023-07-19T19:40:38.995Z,4.00
2023-07-19T19:43:05.889Z,3.70
2023-07-19T19:45:32.838Z,3.60
2023-07-19T19:47:59.737Z,3.70
2023-07-19T19:50:28.169Z,3.80
2023-07-19T19:53:09.404Z,3.60
2023-07-19T19:58:07.752Z,4.30
2023-07-19T20:00:35.679Z,4.40
2023-07-19T20:08:02.586Z,3.90
2023-07-19T20:10:29.754Z,3.80
2023-07-19T20:12:56.849Z,4.30
2023-07-19T20:15:23.768Z,3.90
2023-07-19T20:17:50.799Z,4.90
2023-07-19T20:20:22.519Z,5.70
2023-07-19T20:22:51.481Z,5.10
2023-07-19T20:25:32.612Z,4.30
2023-07-19T20:28:06.385Z,4.90
2023-07-19T20:30:44.129Z,4.60
2023-07-19T20:33:18.633Z,4.80
2023-07-19T20:43:16.579Z,4.40
2023-07-19T20:45:43.517Z,4.40
2023-07-19T20:48:10.513Z,5.10
2023-07-19T20:50:37.506Z,5.30
2023-07-19T20:53:04.331Z,5.70
2023-07-19T20:55:33.104Z,6.70
2023-07-19T20:58:00.144Z,5.90
2023-07-19T21:00:27.068Z,5.90
2023-07-19T21:02:54.143Z,4.80
2023-07-19T21:05:21.138Z,5.80
2023-07-19T21:07:48.036Z,5.50
2023-07-19T21:10:16.498Z,5.30
2023-07-19T21:12:43.379Z,4.40
2023-07-19T21:15:11.892Z,4.50
2023-07-19T21:17:40.448Z,4.40
2023-07-19T21:20:08.067Z,4.20
2023-07-19T21:22:35.194Z,4.30
2023-07-19T21:27:32.821Z,4.80
2023-07-19T21:29:59.817Z,4.80
2023-07-19T21:32:26.680Z,4.90
2023-07-19T21:34:53.727Z,4.50
2023-07-19T21:37:21.715Z,4.50
2023-07-19T21:39:49.416Z,4.40
2023-07-19T21:42:16.760Z,3.80
2023-07-19T21:44:43.920Z,3.50
2023-07-19T21:47:10.934Z,4.00
2023-07-19T21:49:37.859Z,4.30
2023-07-19T21:52:05.830Z,3.80
2023-07-19T21:54:32.741Z,4.20
2023-07-19T21:56:59.612Z,4.60
2023-07-19T21:59:26.693Z,3.60
2023-07-19T22:01:53.542Z,4.20
2023-07-19T22:04:20.525Z,4.20
2023-07-19T22:06:47.474Z,3.80
2023-07-19T22:09:15.246Z,4.40
2023-07-19T22:11:42.708Z,3.90
2023-07-19T22:14:11.228Z,4.20
2023-07-19T22:16:39.281Z,4.10
2023-07-19T22:19:06.407Z,4.10
2023-07-19T22:21:33.225Z,4.30
2023-07-19T22:24:00.051Z,3.90
2023-07-19T22:26:26.977Z,4.20
2023-07-19T22:29:02.743Z,4.40
2023-07-19T22:31:30.209Z,4.50
2023-07-19T22:33:57.441Z,4.60
2023-07-19T22:36:24.613Z,4.60
2023-07-19T22:38:51.787Z,5.20
2023-07-19T22:41:18.636Z,5.40
2023-07-19T22:43:45.455Z,4.50
2023-07-19T22:46:12.460Z,4.30
2023-07-19T22:48:39.428Z,4.20
2023-07-19T22:51:06.489Z,4.10
2023-07-19T22:53:33.883Z,4.40
2023-07-19T22:56:02.832Z,4.20
2023-07-19T22:58:30.213Z,4.00
2023-07-19T23:00:58.542Z,4.30
2023-07-19T23:03:26.029Z,4.80
2023-07-19T23:05:53.898Z,5.90
2023-07-19T23:08:21.087Z,5.90
2023-07-19T23:10:48.259Z,5.30
2023-07-19T23:13:15.337Z,5.00
2023-07-19T23:15:43.388Z,5.40
2023-07-19T23:18:10.366Z,4.30
2023-07-19T23:20:38.690Z,5.00
2023-07-19T23:23:05.748Z,5.30
2023-07-19T23:25:32.662Z,5.10
2023-07-19T23:28:02.073Z,5.20
2023-07-19T23:30:29.304Z,4.60
2023-07-19T23:32:58.643Z,4.10
2023-07-19T23:35:25.585Z,4.30
2023-07-19T23:37:53.544Z,4.50
2023-07-19T23:40:20.409Z,4.40
2023-07-19T23:42:47.243Z,4.50
2023-07-19T23:45:14.029Z,4.20
2023-07-19T23:47:41.148Z,4.50
2023-07-19T23:50:08.530Z,4.40
2023-07-19T23:52:35.484Z,4.70
2023-07-19T23:55:04.594Z,4.70
2023-07-19T23:57:31.366Z,4.00
2023-07-19T23:59:58.239Z,4.60
